createdAt,value
2018-09-18T00:01:33.926Z,22.50
2018-09-18T00:04:01.621Z,22.50
2018-09-18T00:06:29.097Z,22.50
2018-09-18T00:08:56.561Z,22.50
2018-09-18T00:11:24.008Z,22.50
2018-09-18T00:13:51.468Z,22.50
2018-09-18T00:16:18.946Z,22.50
2018-09-18T00:18:46.424Z,22.50
2018-09-18T00:21:25.399Z,22.50
2018-09-18T00:23:52.860Z,22.50
2018-09-18T00:26:20.325Z,22.50
2018-09-18T00:28:48.094Z,22.50
2018-09-18T00:31:15.552Z,22.50
2018-09-18T00:33:43.064Z,22.50
2018-09-18T00:36:10.524Z,22.50
2018-09-18T00:38:37.984Z,22.50
2018-09-18T00:41:05.589Z,22.50
2018-09-18T00:43:33.092Z,22.50
2018-09-18T00:46:00.546Z,22.50
2018-09-18T00:48:28.021Z,22.50
2018-09-18T00:50:55.476Z,22.50
2018-09-18T00:53:22.965Z,22.50
2018-09-18T00:55:50.488Z,22.50
2018-09-18T00:58:17.993Z,22.50
2018-09-18T01:00:45.541Z,22.50
2018-09-18T01:03:13.063Z,22.50
2018-09-18T01:05:40.524Z,22.50
2018-09-18T01:08:07.996Z,22.50
2018-09-18T01:10:35.445Z,22.50
2018-09-18T01:13:02.942Z,22.50
2018-09-18T01:15:30.413Z,22.50
2018-09-18T01:17:58.009Z,22.50
2018-09-18T01:20:25.628Z,22.50
2018-09-18T01:22:53.104Z,22.50
2018-09-18T01:25:20.596Z,22.50
2018-09-18T01:27:48.189Z,22.50
2018-09-18T01:30:15.653Z,22.50
2018-09-18T01:32:43.128Z,22.50
2018-09-18T01:35:10.616Z,22.50
2018-09-18T01:37:38.098Z,22.50
2018-09-18T01:40:05.769Z,22.50
2018-09-18T01:42:33.342Z,22.50
2018-09-18T01:45:00.819Z,22.50
2018-09-18T01:47:28.300Z,22.50
2018-09-18T01:49:55.786Z,22.50
2018-09-18T01:52:23.265Z,22.40
2018-09-18T01:54:50.753Z,22.50
2018-09-18T01:57:18.242Z,22.50
2018-09-18T01:59:45.725Z,22.50
2018-09-18T02:02:13.188Z,22.50
2018-09-18T02:04:40.669Z,22.50
2018-09-18T02:07:08.148Z,22.50
2018-09-18T02:09:35.642Z,22.40
2018-09-18T02:12:03.115Z,22.50
2018-09-18T02:14:30.586Z,22.50
2018-09-18T02:16:58.062Z,22.40
2018-09-18T02:19:25.532Z,22.50
2018-09-18T02:21:52.992Z,22.50
2018-09-18T02:24:20.461Z,22.50
2018-09-18T02:26:47.936Z,22.50
2018-09-18T02:29:15.418Z,22.40
2018-09-18T02:31:42.900Z,22.40
2018-09-18T02:34:10.357Z,22.50
2018-09-18T02:36:37.828Z,22.40
2018-09-18T02:39:07.533Z,22.50
2018-09-18T02:41:35.008Z,22.50
2018-09-18T02:44:02.482Z,22.40
2018-09-18T02:46:29.995Z,22.50
2018-09-18T02:48:57.597Z,22.40
2018-09-18T02:51:25.100Z,22.40
2018-09-18T02:53:52.636Z,22.40
2018-09-18T02:56:20.141Z,22.50
2018-09-18T02:58:47.879Z,22.40
2018-09-18T03:01:15.362Z,22.40
2018-09-18T03:03:42.833Z,22.40
2018-09-18T03:06:10.341Z,22.50
2018-09-18T03:08:38.117Z,22.40
2018-09-18T03:11:05.646Z,22.40
2018-09-18T03:13:33.121Z,22.40
2018-09-18T03:16:00.629Z,22.50
2018-09-18T03:18:28.379Z,22.40
2018-09-18T03:20:55.969Z,22.50
2018-09-18T03:23:23.449Z,22.40
2018-09-18T03:25:50.938Z,22.40
2018-09-18T03:28:18.442Z,22.40
2018-09-18T03:30:45.951Z,22.40
2018-09-18T03:33:13.601Z,22.40
2018-09-18T03:35:41.165Z,22.40
2018-09-18T03:38:08.747Z,22.40
2018-09-18T03:40:36.228Z,22.40
2018-09-18T03:43:03.773Z,22.40
2018-09-18T03:45:31.228Z,22.50
2018-09-18T03:47:58.936Z,22.40
2018-09-18T03:50:26.418Z,22.40
2018-09-18T03:52:53.900Z,22.40
2018-09-18T03:55:21.378Z,22.40
2018-09-18T03:57:48.861Z,22.40
2018-09-18T04:00:16.356Z,22.40
2018-09-18T04:02:44.180Z,22.40
2018-09-18T04:05:11.701Z,22.40
2018-09-18T04:07:39.184Z,22.40
2018-09-18T04:10:06.886Z,22.40
2018-09-18T04:12:34.397Z,22.40
2018-09-18T04:15:02.164Z,22.40
2018-09-18T04:17:29.795Z,22.40
2018-09-18T04:19:57.292Z,22.40
2018-09-18T04:22:24.772Z,22.40
2018-09-18T04:24:52.624Z,22.40
2018-09-18T04:27:20.136Z,22.40
2018-09-18T04:29:47.621Z,22.40
2018-09-18T04:32:15.100Z,22.40
2018-09-18T04:34:42.586Z,22.30
2018-09-18T04:37:10.158Z,22.30
2018-09-18T04:39:37.624Z,22.30
2018-09-18T04:42:05.139Z,22.30
2018-09-18T04:44:32.605Z,22.30
2018-09-18T04:47:00.080Z,22.30
2018-09-18T04:49:27.550Z,22.30
2018-09-18T04:51:55.039Z,22.20
2018-09-18T04:54:22.584Z,22.20
2018-09-18T04:56:50.237Z,22.20
2018-09-18T04:59:17.733Z,22.20
2018-09-18T05:01:45.253Z,22.20
2018-09-18T05:04:12.840Z,22.20
2018-09-18T05:06:40.321Z,22.10
2018-09-18T05:09:09.094Z,22.00
2018-09-18T05:11:36.774Z,22.00
2018-09-18T05:14:04.351Z,22.00
2018-09-18T05:16:32.169Z,22.00
2018-09-18T05:18:59.665Z,22.10
2018-09-18T05:21:27.148Z,22.10
2018-09-18T05:23:54.660Z,22.10
2018-09-18T05:26:24.188Z,22.20
2018-09-18T05:28:51.676Z,22.20
2018-09-18T05:31:19.152Z,22.20
2018-09-18T05:33:46.848Z,22.20
2018-09-18T05:36:14.269Z,22.20
2018-09-18T05:38:41.748Z,22.20
2018-09-18T05:41:09.220Z,22.20
2018-09-18T05:43:36.678Z,22.20
2018-09-18T05:46:04.154Z,22.20
2018-09-18T05:48:34.522Z,22.20
2018-09-18T05:51:02.180Z,22.20
2018-09-18T05:53:29.668Z,22.20
2018-09-18T05:55:57.137Z,22.20
2018-09-18T05:58:24.704Z,22.20
2018-09-18T06:00:52.185Z,22.30
2018-09-18T06:03:19.976Z,22.20
2018-09-18T06:05:47.438Z,22.20
2018-09-18T06:08:14.920Z,22.20
2018-09-18T06:10:42.416Z,22.20
2018-09-18T06:13:09.885Z,22.20
2018-09-18T06:15:37.348Z,22.20
2018-09-18T06:18:04.837Z,22.20
2018-09-18T06:20:32.307Z,22.30
2018-09-18T06:22:59.801Z,22.20
2018-09-18T06:25:27.279Z,22.20
2018-09-18T06:27:54.753Z,22.30
2018-09-18T06:30:22.229Z,22.30
2018-09-18T06:32:49.704Z,22.20
2018-09-18T06:35:17.193Z,22.20
2018-09-18T06:37:44.672Z,22.20
2018-09-18T06:40:12.209Z,22.30
2018-09-18T06:42:39.693Z,22.20
2018-09-18T06:45:07.335Z,22.20
2018-09-18T06:47:34.821Z,22.20
2018-09-18T06:50:02.292Z,22.20
2018-09-18T06:52:29.764Z,22.20
2018-09-18T06:54:57.234Z,22.30
2018-09-18T06:57:24.719Z,22.30
2018-09-18T06:59:52.184Z,22.20
2018-09-18T07:02:19.652Z,22.20
2018-09-18T07:04:47.192Z,22.20
2018-09-18T07:07:14.668Z,22.20
2018-09-18T07:09:42.224Z,22.20
2018-09-18T07:12:09.725Z,22.20
2018-09-18T07:14:37.192Z,22.30
2018-09-18T07:17:04.656Z,22.20
2018-09-18T07:19:32.123Z,22.30
2018-09-18T07:21:59.576Z,22.20
2018-09-18T07:24:27.042Z,22.30
2018-09-18T07:26:54.498Z,22.30
2018-09-18T07:29:22.001Z,22.30
2018-09-18T07:31:49.460Z,22.30
2018-09-18T07:34:16.933Z,22.30
2018-09-18T07:36:44.392Z,22.30
2018-09-18T07:39:12.450Z,22.30
2018-09-18T07:41:40.090Z,22.30
2018-09-18T07:44:07.783Z,22.30
2018-09-18T07:46:35.317Z,22.30
2018-09-18T07:49:03.953Z,22.30
2018-09-18T07:51:31.920Z,22.30
2018-09-18T07:53:59.821Z,22.40
2018-09-18T07:56:27.685Z,22.30
2018-09-18T07:58:55.162Z,22.30
2018-09-18T08:01:22.951Z,22.40
2018-09-18T08:03:50.497Z,22.30
2018-09-18T08:06:17.956Z,22.30
2018-09-18T08:08:45.416Z,22.30
2018-09-18T08:11:12.880Z,22.30
2018-09-18T08:13:40.347Z,22.30
2018-09-18T08:16:07.820Z,22.30
2018-09-18T08:18:35.285Z,22.30
2018-09-18T08:21:02.751Z,22.30
2018-09-18T08:23:30.279Z,22.30
2018-09-18T08:25:57.734Z,22.30
2018-09-18T08:28:25.204Z,22.30
2018-09-18T08:30:52.806Z,22.30
2018-09-18T08:33:20.278Z,22.40
2018-09-18T08:35:47.753Z,22.30
2018-09-18T08:38:15.557Z,22.40
2018-09-18T08:40:43.034Z,22.30
2018-09-18T08:43:10.516Z,22.40
2018-09-18T08:45:38.002Z,22.40
2018-09-18T08:48:05.480Z,22.40
2018-09-18T08:50:32.954Z,22.40
2018-09-18T08:53:00.447Z,22.30
2018-09-18T08:55:27.917Z,22.30
2018-09-18T08:57:55.380Z,22.30
2018-09-18T09:00:22.861Z,22.30
2018-09-18T09:02:50.350Z,22.40
2018-09-18T09:05:17.844Z,22.30
2018-09-18T09:07:45.517Z,22.30
2018-09-18T09:10:12.944Z,22.40
2018-09-18T09:12:40.409Z,22.30
2018-09-18T09:15:07.961Z,22.30
2018-09-18T09:17:35.341Z,22.40
2018-09-18T09:20:03.017Z,22.30
2018-09-18T09:22:30.510Z,22.40
2018-09-18T09:24:58.002Z,22.40
2018-09-18T09:27:25.546Z,22.40
2018-09-18T09:29:52.990Z,22.40
2018-09-18T09:32:20.666Z,22.40
2018-09-18T09:34:48.225Z,22.30
2018-09-18T09:37:15.792Z,22.40
2018-09-18T09:39:43.164Z,22.40
2018-09-18T09:42:10.630Z,22.40
2018-09-18T09:44:38.094Z,22.40
2018-09-18T09:47:05.593Z,22.40
2018-09-18T09:49:33.054Z,22.40
2018-09-18T09:52:00.525Z,22.40
2018-09-18T09:54:27.981Z,22.30
2018-09-18T09:56:55.525Z,22.40
2018-09-18T09:59:22.976Z,22.40
2018-09-18T10:01:50.511Z,22.40
2018-09-18T10:04:18.294Z,22.40
2018-09-18T10:06:45.757Z,22.40
2018-09-18T10:09:13.563Z,22.40
2018-09-18T10:11:41.417Z,22.40
2018-09-18T10:14:09.604Z,22.40
2018-09-18T10:16:37.064Z,22.40
2018-09-18T10:19:04.533Z,22.40
2018-09-18T10:21:32.002Z,22.40
2018-09-18T10:23:59.458Z,22.40
2018-09-18T10:26:27.079Z,22.40
2018-09-18T10:28:54.432Z,22.40
2018-09-18T10:31:21.882Z,22.40
2018-09-18T10:33:49.346Z,22.40
2018-09-18T10:36:16.799Z,22.40
2018-09-18T10:38:44.264Z,22.40
2018-09-18T10:41:11.777Z,22.40
2018-09-18T10:43:39.237Z,22.40
2018-09-18T10:46:06.710Z,22.40
2018-09-18T10:48:39.375Z,22.40
2018-09-18T10:51:06.840Z,22.40
2018-09-18T10:53:34.308Z,22.40
2018-09-18T10:56:01.761Z,22.40
2018-09-18T10:58:29.281Z,22.40
2018-09-18T11:00:56.735Z,22.40
2018-09-18T11:03:24.228Z,22.40
2018-09-18T11:05:51.703Z,22.40
2018-09-18T11:08:19.215Z,22.40
2018-09-18T11:10:46.638Z,22.40
2018-09-18T11:13:14.162Z,22.40
2018-09-18T11:15:41.667Z,22.40
2018-09-18T11:18:09.296Z,22.40
2018-09-18T11:20:36.719Z,22.40
2018-09-18T11:23:04.169Z,22.40
2018-09-18T11:25:31.656Z,22.40
2018-09-18T11:27:59.110Z,22.40
2018-09-18T11:30:26.564Z,22.40
2018-09-18T11:32:54.141Z,22.40
2018-09-18T11:35:21.551Z,22.40
2018-09-18T11:37:49.017Z,22.40
2018-09-18T11:40:16.487Z,22.40
2018-09-18T11:42:43.944Z,22.40
2018-09-18T11:45:11.414Z,22.40
2018-09-18T11:47:38.873Z,22.40
2018-09-18T11:50:06.347Z,22.40
2018-09-18T11:52:33.826Z,22.40
2018-09-18T11:55:01.302Z,22.40
2018-09-18T11:57:28.766Z,22.40
2018-09-18T11:59:56.246Z,22.40
2018-09-18T12:02:23.719Z,22.40
2018-09-18T12:04:51.230Z,22.40
2018-09-18T12:07:18.657Z,22.40
2018-09-18T12:09:46.133Z,22.40
2018-09-18T12:12:13.601Z,22.40
2018-09-18T12:14:41.084Z,22.40
2018-09-18T12:17:08.648Z,22.40
2018-09-18T12:19:36.045Z,22.40
2018-09-18T12:22:03.899Z,22.50
2018-09-18T12:24:31.396Z,22.40
2018-09-18T12:26:58.867Z,22.50
2018-09-18T12:29:26.335Z,22.50
2018-09-18T12:31:53.810Z,22.50
2018-09-18T12:34:21.600Z,22.50
2018-09-18T12:36:49.075Z,22.50
2018-09-18T12:39:16.544Z,22.50
2018-09-18T12:41:44.045Z,22.50
2018-09-18T12:44:11.497Z,22.40
2018-09-18T12:46:38.984Z,22.50
2018-09-18T12:49:06.556Z,22.50
2018-09-18T12:51:33.942Z,22.40
2018-09-18T12:54:01.439Z,22.40
2018-09-18T12:56:28.974Z,22.50
2018-09-18T12:58:56.566Z,22.50
2018-09-18T13:01:23.997Z,22.50
2018-09-18T13:03:51.462Z,22.50
2018-09-18T13:06:19.076Z,22.50
2018-09-18T13:08:46.400Z,22.50
2018-09-18T13:11:13.865Z,22.50
2018-09-18T13:13:41.380Z,22.50
2018-09-18T13:16:08.831Z,22.50
2018-09-18T13:18:36.317Z,22.50
2018-09-18T13:21:03.785Z,22.50
2018-09-18T13:23:31.245Z,22.50
2018-09-18T13:25:58.725Z,22.50
2018-09-18T13:28:26.242Z,22.50
2018-09-18T13:30:53.782Z,22.50
2018-09-18T13:33:21.375Z,22.60
2018-09-18T13:35:48.858Z,22.50
2018-09-18T13:38:16.337Z,22.60
2018-09-18T13:40:43.847Z,22.60
2018-09-18T13:43:11.360Z,22.60
2018-09-18T13:45:38.832Z,22.60
2018-09-18T13:48:06.528Z,22.60
2018-09-18T13:50:33.995Z,22.60
2018-09-18T13:53:01.487Z,22.60
2018-09-18T13:55:29.084Z,22.60
2018-09-18T13:57:56.521Z,22.60
2018-09-18T14:00:23.980Z,22.60
2018-09-18T14:02:51.437Z,22.60
2018-09-18T14:05:18.896Z,22.60
2018-09-18T14:07:46.374Z,22.60
2018-09-18T14:10:14.968Z,22.60
2018-09-18T14:12:42.525Z,22.60
2018-09-18T14:15:10.088Z,22.60
2018-09-18T14:17:37.565Z,22.60
2018-09-18T14:20:05.679Z,22.60
2018-09-18T14:22:33.101Z,22.60
2018-09-18T14:25:00.562Z,22.60
2018-09-18T14:27:28.094Z,22.60
2018-09-18T14:29:55.549Z,22.60
2018-09-18T14:32:23.066Z,22.60
2018-09-18T14:34:50.889Z,22.60
2018-09-18T14:37:18.296Z,22.60
2018-09-18T14:39:45.771Z,22.60
2018-09-18T14:42:13.221Z,22.60
2018-09-18T14:44:40.673Z,22.60
2018-09-18T14:47:08.128Z,22.60
2018-09-18T14:49:35.602Z,22.60
2018-09-18T14:52:03.077Z,22.60
2018-09-18T14:54:30.603Z,22.60
2018-09-18T14:56:58.077Z,22.60
2018-09-18T14:59:26.896Z,22.60
2018-09-18T15:01:54.406Z,22.60
2018-09-18T15:04:21.897Z,22.60
2018-09-18T15:06:49.412Z,22.60
2018-09-18T15:09:16.850Z,22.60
2018-09-18T15:11:44.469Z,22.60
2018-09-18T15:14:11.980Z,22.60
2018-09-18T15:16:39.468Z,22.60
2018-09-18T15:19:07.549Z,22.60
2018-09-18T15:21:35.652Z,22.60
2018-09-18T15:24:03.457Z,22.60
2018-09-18T15:26:30.928Z,22.60
2018-09-18T15:28:58.465Z,22.60
2018-09-18T15:31:25.937Z,22.60
2018-09-18T15:33:53.548Z,22.70
2018-09-18T15:36:21.333Z,22.60
2018-09-18T15:38:48.821Z,22.60
2018-09-18T15:41:16.316Z,22.60
2018-09-18T15:43:43.896Z,22.60
2018-09-18T15:46:11.395Z,22.70
2018-09-18T15:48:38.868Z,22.60
2018-09-18T15:51:06.506Z,22.60
2018-09-18T15:53:34.032Z,22.60
2018-09-18T15:56:01.488Z,22.60
2018-09-18T15:58:28.945Z,22.60
2018-09-18T16:00:56.404Z,22.70
2018-09-18T16:03:23.888Z,22.60
2018-09-18T16:05:51.340Z,22.60
2018-09-18T16:08:18.788Z,22.60
2018-09-18T16:10:46.250Z,22.70
2018-09-18T16:13:13.728Z,22.70
2018-09-18T16:15:41.201Z,22.70
2018-09-18T16:18:08.669Z,22.70
2018-09-18T16:20:36.285Z,22.70
2018-09-18T16:23:03.797Z,22.60
2018-09-18T16:25:31.243Z,22.70
2018-09-18T16:27:59.598Z,22.70
2018-09-18T16:30:27.061Z,22.60
2018-09-18T16:32:54.538Z,22.70
2018-09-18T16:35:22.031Z,22.70
2018-09-18T16:37:49.497Z,22.70
2018-09-18T16:40:17.037Z,22.70
2018-09-18T16:42:44.548Z,22.70
2018-09-18T16:45:11.917Z,22.70
2018-09-18T16:47:39.388Z,22.70
2018-09-18T16:50:06.948Z,22.70
2018-09-18T16:52:34.446Z,22.70
2018-09-18T16:55:02.094Z,22.70
2018-09-18T16:57:29.368Z,22.70
2018-09-18T16:59:56.840Z,22.70
2018-09-18T17:02:24.437Z,22.70
2018-09-18T17:04:51.794Z,22.70
2018-09-18T17:07:19.291Z,22.70
2018-09-18T17:09:46.888Z,22.70
2018-09-18T17:12:14.564Z,22.70
2018-09-18T17:14:42.050Z,22.70
2018-09-18T17:17:09.533Z,22.70
2018-09-18T17:19:37.117Z,22.70
2018-09-18T17:22:04.624Z,22.70
2018-09-18T17:24:32.613Z,22.70
2018-09-18T17:27:00.447Z,22.70
2018-09-18T17:29:27.909Z,22.70
2018-09-18T17:31:55.412Z,22.70
2018-09-18T17:34:22.905Z,22.70
2018-09-18T17:36:50.736Z,22.70
2018-09-18T17:39:18.693Z,22.70
2018-09-18T17:41:46.261Z,22.80
2018-09-18T17:44:14.471Z,22.80
2018-09-18T17:46:42.218Z,22.80
2018-09-18T17:49:09.904Z,22.80
2018-09-18T17:51:37.366Z,22.70
2018-09-18T17:54:04.825Z,22.80
2018-09-18T17:56:32.327Z,22.80
2018-09-18T17:59:00.599Z,22.80
2018-09-18T18:01:28.635Z,22.80
2018-09-18T18:03:56.952Z,22.70
2018-09-18T18:06:24.421Z,22.80
2018-09-18T18:08:51.980Z,22.80
2018-09-18T18:11:19.495Z,22.80
2018-09-18T18:13:46.996Z,22.80
2018-09-18T18:16:14.463Z,22.80
2018-09-18T18:18:42.060Z,22.80
2018-09-18T18:21:09.641Z,22.80
2018-09-18T18:23:37.157Z,22.80
2018-09-18T18:26:05.190Z,22.80
2018-09-18T18:28:32.765Z,22.80
2018-09-18T18:31:00.217Z,22.80
2018-09-18T18:33:27.907Z,22.80
2018-09-18T18:35:55.280Z,22.80
2018-09-18T18:38:22.807Z,22.80
2018-09-18T18:40:50.322Z,22.80
2018-09-18T18:43:17.746Z,22.80
2018-09-18T18:45:45.205Z,22.80
2018-09-18T18:48:12.855Z,22.80
2018-09-18T18:50:40.147Z,22.80
2018-09-18T18:53:07.610Z,22.80
2018-09-18T18:55:35.075Z,22.80
2018-09-18T18:58:02.544Z,22.80
2018-09-18T19:00:30.017Z,22.80
2018-09-18T19:02:57.484Z,22.80
2018-09-18T19:05:24.952Z,22.80
2018-09-18T19:07:52.433Z,22.80
2018-09-18T19:10:19.894Z,22.80
2018-09-18T19:12:47.368Z,22.80
2018-09-18T19:15:15.102Z,22.80
2018-09-18T19:17:42.569Z,22.80
2018-09-18T19:20:10.039Z,22.80
2018-09-18T19:22:37.508Z,22.80
2018-09-18T19:25:05.011Z,22.80
2018-09-18T19:27:32.484Z,22.80
2018-09-18T19:29:59.956Z,22.80
2018-09-18T19:32:27.432Z,22.80
2018-09-18T19:34:55.076Z,22.80
2018-09-18T19:37:22.544Z,22.80
2018-09-18T19:39:50.027Z,22.80
2018-09-18T19:42:17.563Z,22.80
2018-09-18T19:44:45.042Z,22.80
2018-09-18T19:47:12.516Z,22.80
2018-09-18T19:49:41.144Z,22.80
2018-09-18T19:52:09.574Z,22.80
2018-09-18T19:54:37.025Z,22.80
2018-09-18T19:57:04.759Z,22.80
2018-09-18T19:59:32.237Z,22.80
2018-09-18T20:01:59.781Z,22.80
2018-09-18T20:04:27.261Z,22.80
2018-09-18T20:06:54.733Z,22.90
2018-09-18T20:09:22.249Z,22.90
2018-09-18T20:11:49.681Z,22.80
2018-09-18T20:14:17.147Z,22.90
2018-09-18T20:16:44.611Z,22.90
2018-09-18T20:19:12.131Z,22.80
2018-09-18T20:21:39.601Z,22.80
2018-09-18T20:24:07.190Z,22.90
2018-09-18T20:26:34.842Z,22.80
2018-09-18T20:29:02.313Z,22.90
2018-09-18T20:31:29.780Z,22.80
2018-09-18T20:33:57.277Z,22.90
2018-09-18T20:36:24.878Z,22.90
2018-09-18T20:38:52.272Z,22.90
2018-09-18T20:41:19.727Z,22.90
2018-09-18T20:43:47.196Z,22.90
2018-09-18T20:46:14.657Z,22.90
2018-09-18T20:48:42.139Z,22.90
2018-09-18T20:51:09.614Z,22.90
2018-09-18T20:53:37.063Z,22.90
2018-09-18T20:56:04.528Z,22.90
2018-09-18T20:58:31.999Z,22.90
2018-09-18T21:00:59.511Z,22.90
2018-09-18T21:03:26.970Z,22.90
2018-09-18T21:05:54.432Z,22.90
2018-09-18T21:08:22.016Z,22.90
2018-09-18T21:10:49.543Z,22.90
2018-09-18T21:13:17.116Z,22.90
2018-09-18T21:15:44.590Z,22.90
2018-09-18T21:18:12.209Z,22.90
2018-09-18T21:20:39.717Z,22.90
2018-09-18T21:23:07.212Z,22.90
2018-09-18T21:26:17.370Z,22.90
2018-09-18T21:28:44.999Z,22.90
2018-09-18T21:31:12.537Z,22.90
2018-09-18T21:33:40.060Z,22.90
2018-09-18T21:36:07.561Z,22.90
2018-09-18T21:38:35.025Z,22.90
2018-09-18T21:41:02.498Z,22.90
2018-09-18T21:43:30.547Z,22.90
2018-09-18T21:45:58.041Z,22.90
2018-09-18T21:48:25.520Z,22.90
2018-09-18T21:50:53.055Z,22.90
2018-09-18T21:53:20.518Z,22.90
2018-09-18T21:55:48.189Z,22.90
2018-09-18T21:58:15.690Z,23.00
2018-09-18T22:00:43.436Z,22.90
2018-09-18T22:03:11.034Z,22.90
2018-09-18T22:05:38.527Z,22.90
2018-09-18T22:08:06.030Z,22.90
2018-09-18T22:10:33.491Z,22.90
2018-09-18T22:13:01.721Z,22.90
2018-09-18T22:15:29.893Z,22.90
2018-09-18T22:17:57.571Z,22.90
2018-09-18T22:20:25.067Z,22.90
2018-09-18T22:22:52.537Z,22.90
2018-09-18T22:25:20.942Z,22.90
2018-09-18T22:27:48.418Z,22.90
2018-09-18T22:30:16.011Z,22.90
2018-09-18T22:32:43.585Z,22.90
2018-09-18T22:35:11.068Z,22.90
2018-09-18T22:37:38.555Z,22.90
2018-09-18T22:40:06.306Z,22.90
2018-09-18T22:42:33.803Z,22.90
2018-09-18T22:45:01.277Z,22.90
2018-09-18T22:47:28.745Z,22.90
2018-09-18T22:49:56.237Z,22.90
2018-09-18T22:52:23.794Z,22.90
2018-09-18T22:54:51.280Z,22.90
2018-09-18T22:57:18.762Z,22.90
2018-09-18T22:59:46.241Z,22.90
2018-09-18T23:02:13.827Z,22.90
2018-09-18T23:04:41.317Z,22.90
2018-09-18T23:07:08.800Z,22.90
2018-09-18T23:09:36.272Z,22.90
2018-09-18T23:12:03.856Z,22.90
2018-09-18T23:14:31.376Z,23.00
2018-09-18T23:16:58.846Z,22.90
2018-09-18T23:19:26.384Z,22.90
2018-09-18T23:21:53.887Z,23.00
2018-09-18T23:24:21.331Z,22.90
2018-09-18T23:26:48.773Z,22.90
2018-09-18T23:29:16.211Z,22.90
2018-09-18T23:31:43.663Z,22.90
2018-09-18T23:34:11.107Z,22.90
2018-09-18T23:36:38.549Z,22.90
2018-09-18T23:39:06.779Z,22.90
2018-09-18T23:41:34.222Z,22.90
2018-09-18T23:44:01.667Z,23.00
2018-09-18T23:46:29.118Z,22.90
2018-09-18T23:48:56.583Z,22.90
2018-09-18T23:51:24.019Z,22.90
2018-09-18T23:53:51.836Z,23.00
2018-09-18T23:56:19.293Z,23.00
2018-09-18T23:58:46.815Z,23.00
